Estrella, Colorado
Current Conditions -  °F | °C
As of 9:52 PM on Saturday 20 Dec 2014 (Local Time) from KALS Reporting Station
Broken Clouds Broken Clouds  
Wind Chill: 21°   Ceiling: 10000
Heat Index: 21°   Visibility: 10mi
Dew Point: 16°   Wind: 3mph
Humidity: 81%   Direction: 130°SE
Pressure: 30.03"   Gusts: NA
Location:  37.469°N, 105.836°W
Report Text: KALS 210452Z AUTO 13003KT 10SM SCT080 BKN100 M06/M09 A3003 RMK AO2 SLP205 T10611089
Loading
Personal Weather Stations






























Interactive Weather Map New forecast layout! Learn more

10-Day Weather Forecast

Advertisements
Track Severe Weather on mobile